Αρχική σελίδα
METAR-TAF:

METAR-TAF

Αεροδρόμια :

Κουρασάο, Ολλανδικές Αντίλλες

γεωγραφικό πλάτος: 12-12N, γεωγραφικό μήκος: 068-58W, υψόμετρο: 9 μ

Παρών καιρός

Η αναφορά έγινε 39 λεπτά πριν, στις 07:00 UTC
Άνεμος 9 kt από Α/NA
Θερμοκρασία 26°C
Υγρασία 79%
Πίεση 1012 hPa
Ορατότητα 10 χλμ και άνω
Λίγα νέφη σε ύψος 1700 πόδια

METAR: TNCC 260700Z 12009KT 9999 FEW017 26/22 Q1012 NOSIG

Χρόνος: 03:39 (07:39 UTC)

Πρόγνωση Καιρού

Η αναφορά έγινε 2 ώρες και 24 λεπτά πριν, στις 05:15 UTC
Η πρόγνωση ισχύει από τις 26 στις 06 UTC έως τις 27 στις 06 UTC
Άνεμος 10 kt από Α
Ορατότητα 10 χλμ και άνω
Διάσπαρτα νέφη σε ύψος 1800 πόδια

TAF: TNCC 260515Z 2606/2706 10010KT 9999 SCT018

Μετεωρολογικές αναφορές και προγνώσεις για περισσότερα από 4000 αεροδρόμια (δελτία METAR και TAF).

Οι διαθέσιμοι σταθμοί απεικονίζονται στο χάρτη με κίτρινες και κόκκινες κουκκίδες.

Μετακινήστε το ποντίκι πάνω από τις κουκκίδες για να δείτε το όνομα του σταθμού.

Στη συνέχεια, κάντε κλικ για να δείτε τις μετεωρολογικές αναφορές και τις προγνώσεις καιρού.

Για να αλλάξετε το χάρτη: κάντε κλικ στα πράσινα κουμπιά με τον μαύρο σταυρό για να ζουμάρετε, στο πράσινο κουμπί με την παύλα για να αφαιρέσετε το ζουμ ή στα πράσινα βέλη για να αντιπαραβάλλετε χάρτες.


METAR-TAF: